Time;durP1;ratioP1;P1;durP2;ratioP2;P2;SDS_P1;SDS_P2;PMS_P1;PMS_P2;Temp;Humidity;BMP_temperature;BMP_pressure;BME280_temperature;BME280_humidity;BME280_pressure;Samples;Min_cycle;Max_cycle;Signal;HPM_P1;HPM_P2
2022/04/09 00:01:14;;;;;;;2.30;0.75;;;11.60;76.40;;;;;;5167282;28;20045;-73
2022/04/09 00:03:46;;;;;;;0.77;0.57;;;11.60;76.70;;;;;;5163872;28;20053;-73
2022/04/09 00:06:19;;;;;;;0.98;0.63;;;11.60;75.20;;;;;;5166889;28;20054;-73
2022/04/09 00:08:51;;;;;;;1.13;0.70;;;11.70;74.60;;;;;;5171698;28;20052;-73
2022/04/09 00:11:24;;;;;;;4.03;0.80;;;11.70;75.30;;;;;;5173282;28;20042;-74
2022/04/09 00:13:56;;;;;;;3.88;1.10;;;11.70;75.00;;;;;;5165822;28;20045;-75
2022/04/09 00:16:28;;;;;;;1.27;1.00;;;11.70;75.00;;;;;;5176673;28;20434;-73
2022/04/09 00:19:01;;;;;;;0.90;0.60;;;11.80;74.60;;;;;;5179586;28;20076;-73
2022/04/09 00:21:35;;;;;;;1.33;0.65;;;11.80;74.10;;;;;;5163078;28;20049;-73
2022/04/09 00:24:08;;;;;;;1.08;0.65;;;11.80;74.60;;;;;;5175657;28;20462;-74
2022/04/09 00:26:40;;;;;;;1.50;1.10;;;11.80;74.10;;;;;;5171014;28;20662;-73
2022/04/09 00:29:13;;;;;;;1.97;0.70;;;11.90;73.70;;;;;;5166825;28;20444;-73
2022/04/09 00:31:45;;;;;;;1.73;0.80;;;12.00;73.50;;;;;;5173796;28;20052;-73
2022/04/09 00:34:18;;;;;;;2.25;1.08;;;12.00;73.50;;;;;;5176615;28;20057;-73
2022/04/09 00:36:51;;;;;;;2.28;0.70;;;12.10;73.50;;;;;;5157402;28;20050;-73
2022/04/09 00:39:24;;;;;;;3.17;0.80;;;12.20;73.40;;;;;;5164154;28;20453;-73
2022/04/09 00:41:57;;;;;;;3.83;0.80;;;12.30;73.70;;;;;;5172793;28;20061;-72
2022/04/09 00:44:31;;;;;;;2.55;0.95;;;12.40;73.90;;;;;;5179907;28;20412;-72
2022/04/09 00:47:04;;;;;;;2.97;1.00;;;12.40;74.30;;;;;;5175886;28;20046;-73
2022/04/09 00:49:37;;;;;;;4.07;0.82;;;12.40;75.60;;;;;;5166984;28;20072;-73
2022/04/09 00:52:11;;;;;;;2.35;0.90;;;12.40;75.90;;;;;;5170540;28;20041;-73
2022/04/09 00:54:44;;;;;;;6.95;1.08;;;12.30;77.10;;;;;;5171966;28;20969;-72
2022/04/09 00:57:17;;;;;;;;;;;12.20;78.00;;;;;;5168922;28;20041;-73
2022/04/09 00:59:52;;;;;;;7.13;1.10;;;12.10;80.00;;;;;;5163085;28;19925;-73
2022/04/09 01:02:24;;;;;;;5.00;1.27;;;12.00;81.10;;;;;;5169015;28;20079;-73
2022/04/09 01:04:58;;;;;;;4.38;1.10;;;11.90;82.70;;;;;;5165463;28;20052;-73
2022/04/09 01:07:31;;;;;;;3.30;1.13;;;11.80;86.20;;;;;;5150704;28;20038;-72
2022/04/09 01:10:05;;;;;;;5.43;1.10;;;11.50;89.80;;;;;;5167864;28;20037;-72
2022/04/09 01:12:38;;;;;;;1.65;0.88;;;11.20;92.50;;;;;;5167464;28;20496;-73
2022/04/09 01:15:11;;;;;;;4.50;0.60;;;10.90;94.20;;;;;;5173766;28;20061;-73
2022/04/09 01:17:44;;;;;;;1.20;0.63;;;10.70;95.50;;;;;;5162080;28;20136;-73
2022/04/09 01:20:18;;;;;;;1.17;0.82;;;10.60;96.70;;;;;;5178415;28;20060;-73
2022/04/09 01:22:54;;;;;;;1.35;0.60;;;10.60;97.90;;;;;;5167470;28;20064;-73
2022/04/09 01:25:27;;;;;;;1.05;0.57;;;10.50;97.20;;;;;;5174180;28;20038;-73
2022/04/09 01:28:04;;;;;;;1.38;0.63;;;10.50;98.00;;;;;;5133908;28;20060;-71
2022/04/09 01:30:36;;;;;;;2.75;0.60;;;10.40;96.80;;;;;;5171718;28;20076;-74
2022/04/09 01:33:15;;;;;;;2.33;0.60;;;9.80;99.00;;;;;;5176024;28;20037;-72
2022/04/09 01:35:48;;;;;;;2.88;0.63;;;9.50;99.90;;;;;;5174982;28;20042;-73
2022/04/09 01:38:22;;;;;;;0.88;0.40;;;9.00;99.90;;;;;;5166635;28;22398;-72
2022/04/09 01:40:54;;;;;;;1.38;0.43;;;8.70;99.90;;;;;;5182085;28;20041;-73
2022/04/09 01:43:30;;;;;;;1.42;0.30;;;8.50;99.90;;;;;;5165751;28;20060;-72
2022/04/09 01:46:02;;;;;;;1.48;0.30;;;8.20;99.90;;;;;;5166359;28;20436;-74
2022/04/09 01:48:35;;;;;;;1.45;1.33;;;8.00;99.90;;;;;;5161126;28;20042;-74
2022/04/09 01:51:10;;;;;;;0.50;0.50;;;7.90;99.90;;;;;;5156192;28;20053;-74
2022/04/09 01:53:42;;;;;;;0.30;0.30;;;7.80;99.90;;;;;;5165083;28;20049;-73
2022/04/09 01:56:15;;;;;;;0.95;0.60;;;7.60;99.90;;;;;;5162809;28;20046;-73
2022/04/09 01:58:48;;;;;;;;;;;7.50;99.90;;;;;;5161277;28;20049;-73
2022/04/09 02:01:22;;;;;;;0.40;0.40;;;7.20;99.90;;;;;;5171478;28;19929;-73
2022/04/09 02:03:55;;;;;;;1.25;0.55;;;7.10;99.90;;;;;;5167647;28;20076;-73
2022/04/09 02:06:28;;;;;;;1.58;0.40;;;7.00;99.90;;;;;;5148579;28;20152;-72
2022/04/09 02:09:01;;;;;;;2.30;0.50;;;7.00;99.90;;;;;;5181890;28;20046;-73
2022/04/09 02:11:35;;;;;;;0.77;0.70;;;6.90;99.90;;;;;;5160526;28;20050;-73
2022/04/09 02:14:12;;;;;;;0.52;0.52;;;6.90;99.90;;;;;;5160802;28;20485;-74
2022/04/09 02:16:44;;;;;;;0.70;0.60;;;6.70;99.90;;;;;;5157239;28;20049;-74
2022/04/09 02:19:18;;;;;;;0.52;0.52;;;6.40;99.90;;;;;;5174215;28;20038;-73
2022/04/09 02:21:51;;;;;;;1.08;0.98;;;6.20;99.90;;;;;;5155233;28;20060;-74
2022/04/09 02:24:24;;;;;;;0.60;0.60;;;5.90;99.90;;;;;;5170091;28;21258;-74
2022/04/09 02:26:56;;;;;;;0.93;0.93;;;5.80;99.90;;;;;;5153729;28;20054;-73
2022/04/09 02:29:28;;;;;;;0.98;0.88;;;5.50;99.90;;;;;;5163983;28;20046;-74
2022/04/09 02:32:02;;;;;;;1.30;1.10;;;5.40;99.90;;;;;;5164252;28;20050;-75
2022/04/09 02:34:35;;;;;;;0.80;0.80;;;5.30;99.90;;;;;;5158037;28;21202;-73
2022/04/09 02:37:08;;;;;;;1.58;1.33;;;5.30;99.90;;;;;;5174568;28;20054;-73
2022/04/09 02:39:41;;;;;;;1.60;1.48;;;5.10;99.90;;;;;;5170161;28;20053;-73
2022/04/09 02:42:14;;;;;;;0.82;0.82;;;4.90;99.90;;;;;;5167706;28;20054;-73
2022/04/09 02:44:47;;;;;;;1.63;1.10;;;4.50;99.90;;;;;;5155705;28;20056;-73
2022/04/09 02:47:20;;;;;;;1.80;1.70;;;4.10;99.90;;;;;;5178272;28;20050;-74
2022/04/09 02:49:52;;;;;;;1.42;1.00;;;4.00;99.90;;;;;;5168514;28;20493;-74
2022/04/09 02:52:27;;;;;;;1.35;1.25;;;3.90;99.90;;;;;;5138362;28;20088;-73
2022/04/09 02:55:01;;;;;;;1.60;1.50;;;3.90;99.90;;;;;;5160403;28;20048;-74
2022/04/09 02:57:37;;;;;;;1.90;1.80;;;3.70;99.90;;;;;;5151266;28;20070;-74
2022/04/09 03:00:12;;;;;;;1.50;1.40;;;3.70;99.90;;;;;;5164113;28;20054;-74
2022/04/09 03:02:46;;;;;;;1.88;1.77;;;3.80;99.90;;;;;;5154954;28;20064;-72
2022/04/09 03:05:34;;;;;;;2.97;2.05;;;3.80;99.90;;;;;;5165543;28;20049;-73
2022/04/09 03:08:07;;;;;;;2.60;2.40;;;3.70;99.90;;;;;;5177818;28;20045;-73
2022/04/09 03:10:40;;;;;;;2.15;1.92;;;3.60;99.90;;;;;;5177743;28;20421;-73
2022/04/09 03:13:12;;;;;;;3.37;2.67;;;3.60;99.90;;;;;;5174443;28;20042;-73
2022/04/09 03:15:45;;;;;;;2.35;2.15;;;3.50;99.90;;;;;;5163646;28;20319;-73
2022/04/09 03:18:20;;;;;;;2.63;2.40;;;3.50;99.90;;;;;;5178687;28;20045;-73
2022/04/09 03:20:53;;;;;;;4.33;3.27;;;3.40;99.90;;;;;;5171475;28;20076;-73
2022/04/09 03:23:27;;;;;;;3.00;2.70;;;3.40;99.90;;;;;;5180785;28;20512;-72
2022/04/09 03:26:05;;;;;;;3.08;2.78;;;3.40;99.90;;;;;;5161447;28;20569;-74
2022/04/09 03:28:48;;;;;;;3.90;2.85;;;3.40;99.90;;;;;;5172150;28;20042;-72
2022/04/09 03:31:21;;;;;;;3.67;2.75;;;3.30;99.90;;;;;;5187010;28;20041;-74
2022/04/09 03:33:54;;;;;;;3.15;2.75;;;3.30;99.90;;;;;;5180286;28;20042;-74
2022/04/09 03:36:28;;;;;;;3.67;2.97;;;3.30;99.90;;;;;;5177499;28;20042;-73
2022/04/09 03:39:01;;;;;;;5.00;3.20;;;3.20;99.90;;;;;;5160162;28;20041;-72
2022/04/09 03:41:34;;;;;;;4.40;3.65;;;3.10;99.90;;;;;;5171056;28;20303;-73
2022/04/09 03:44:09;;;;;;;3.45;3.15;;;3.00;99.90;;;;;;5181324;28;20061;-73
2022/04/09 03:46:48;;;;;;;4.22;3.28;;;3.00;99.90;;;;;;5175198;28;20049;-73
2022/04/09 03:49:23;;;;;;;3.90;3.22;;;3.00;99.90;;;;;;5157598;28;20041;-73
2022/04/09 03:51:56;;;;;;;6.13;3.45;;;3.00;99.90;;;;;;5177912;28;20049;-73
2022/04/09 03:54:32;;;;;;;5.97;4.18;;;3.00;99.90;;;;;;5178612;28;20041;-74
2022/04/09 03:57:05;;;;;;;6.68;4.65;;;3.00;99.90;;;;;;5158920;28;20053;-72
2022/04/09 03:59:54;;;;;;;6.28;3.60;;;3.00;99.90;;;;;;5175245;28;20097;-73
2022/04/09 04:02:27;;;;;;;9.73;5.25;;;3.00;99.90;;;;;;5176082;28;20056;-74
2022/04/09 04:05:03;;;;;;;7.38;4.50;;;3.00;99.90;;;;;;5188610;28;20060;-74
2022/04/09 04:07:42;;;;;;;6.38;4.82;;;3.00;99.90;;;;;;5176081;28;20527;-74
2022/04/09 04:10:15;;;;;;;5.70;4.47;;;3.00;99.90;;;;;;5169767;28;20405;-73
2022/04/09 04:12:51;;;;;;;7.55;5.03;;;3.00;99.90;;;;;;5184056;28;20402;-74
2022/04/09 04:15:28;;;;;;;5.93;4.57;;;3.00;99.90;;;;;;5168974;28;20413;-73
2022/04/09 04:18:01;;;;;;;7.93;4.90;;;3.10;99.90;;;;;;5170142;28;20049;-74
2022/04/09 04:20:38;;;;;;;8.07;5.20;;;3.10;99.90;;;;;;5159491;28;20046;-72
2022/04/09 04:23:11;;;;;;;;;;;3.10;99.90;;;;;;5169731;28;20418;-73
2022/04/09 04:25:44;;;;;;;7.13;5.25;;;3.10;99.90;;;;;;5178912;28;19980;-73
2022/04/09 04:28:17;;;;;;;6.80;5.03;;;3.20;99.90;;;;;;5176059;28;20049;-73
2022/04/09 04:30:50;;;;;;;;;;;3.20;99.90;;;;;;5169520;28;20421;-73
2022/04/09 04:33:24;;;;;;;7.97;5.63;;;3.20;99.90;;;;;;5184790;28;20435;-73
2022/04/09 04:36:02;;;;;;;9.18;6.20;;;3.20;99.90;;;;;;5165327;28;20046;-73
2022/04/09 04:38:39;;;;;;;8.02;5.45;;;3.20;99.90;;;;;;5173146;28;20085;-73
2022/04/09 04:41:12;;;;;;;9.50;6.18;;;3.20;99.90;;;;;;5181957;28;20665;-73
2022/04/09 04:43:51;;;;;;;9.15;6.10;;;3.20;99.90;;;;;;5174847;28;20432;-73
2022/04/09 04:46:25;;;;;;;9.80;5.55;;;3.20;99.90;;;;;;5172595;28;20056;-73
2022/04/09 04:49:00;;;;;;;9.77;5.10;;;3.20;99.90;;;;;;5158790;28;20042;-73
2022/04/09 04:51:32;;;;;;;7.07;5.30;;;3.20;99.90;;;;;;5156812;28;20496;-73
2022/04/09 04:54:05;;;;;;;6.82;4.85;;;3.30;99.90;;;;;;5159484;28;20037;-73
2022/04/09 04:56:39;;;;;;;8.60;5.28;;;3.30;99.90;;;;;;5174153;28;20037;-73
2022/04/09 04:59:11;;;;;;;10.07;5.35;;;3.30;99.90;;;;;;5186276;28;20052;-74
2022/04/09 05:01:44;;;;;;;8.43;5.15;;;3.30;99.90;;;;;;5159867;28;20393;-74
2022/04/09 05:04:17;;;;;;;10.55;6.35;;;3.20;99.90;;;;;;5180658;28;20125;-74
2022/04/09 05:06:59;;;;;;;8.50;5.38;;;3.30;99.90;;;;;;5173388;28;20389;-74
2022/04/09 05:09:34;;;;;;;7.82;5.32;;;3.30;99.90;;;;;;5178900;28;20054;-72
2022/04/09 05:12:07;;;;;;;9.98;6.07;;;3.30;99.90;;;;;;5188542;28;20053;-73
2022/04/09 05:14:45;;;;;;;12.30;6.03;;;3.30;99.90;;;;;;5158861;28;20402;-73
2022/04/09 05:17:21;;;;;;;11.25;7.00;;;3.30;99.90;;;;;;5157709;28;20505;-72
2022/04/09 05:19:54;;;;;;;12.63;7.68;;;3.30;99.90;;;;;;5179702;28;20413;-73
2022/04/09 05:22:27;;;;;;;10.88;6.70;;;3.30;99.90;;;;;;5166480;28;20064;-73
2022/04/09 05:25:06;;;;;;;12.38;6.90;;;3.30;99.90;;;;;;5175084;28;20071;-72
2022/04/09 05:27:43;;;;;;;10.82;6.65;;;3.30;99.90;;;;;;5159040;28;20057;-73
2022/04/09 05:30:25;;;;;;;11.50;7.03;;;3.20;99.90;;;;;;5174491;28;20136;-73
2022/04/09 05:32:58;;;;;;;9.98;6.18;;;3.10;99.90;;;;;;5166773;28;20049;-73
2022/04/09 05:35:31;;;;;;;12.90;6.60;;;3.10;99.90;;;;;;5171936;28;20053;-73
2022/04/09 05:38:04;;;;;;;14.82;7.65;;;3.10;99.90;;;;;;5193825;28;20444;-73
2022/04/09 05:40:42;;;;;;;11.32;6.40;;;3.10;99.90;;;;;;5176058;28;20048;-74
2022/04/09 05:43:22;;;;;;;10.40;6.35;;;3.10;99.90;;;;;;5186796;28;20057;-73
2022/04/09 05:45:58;;;;;;;12.82;6.70;;;3.10;99.90;;;;;;5145198;28;20061;-73
2022/04/09 05:48:36;;;;;;;10.13;6.00;;;3.10;99.90;;;;;;5171046;28;20497;-74
2022/04/09 05:51:08;;;;;;;14.30;7.40;;;3.10;99.90;;;;;;5151791;28;20041;-73
2022/04/09 05:53:45;;;;;;;15.75;7.95;;;3.10;99.90;;;;;;5181709;28;20102;-73
2022/04/09 05:56:18;;;;;;;14.57;7.50;;;3.10;99.90;;;;;;5165035;28;20056;-73
2022/04/09 05:58:50;;;;;;;13.80;7.70;;;3.10;99.90;;;;;;5167271;28;20077;-73
2022/04/09 06:01:44;;;;;;;15.37;8.90;;;3.00;99.90;;;;;;5186460;28;20413;-73
2022/04/09 06:04:20;;;;;;;16.13;8.50;;;3.00;99.90;;;;;;5184476;28;20049;-73
2022/04/09 06:06:55;;;;;;;19.88;8.70;;;3.00;99.90;;;;;;5172033;28;20045;-73
2022/04/09 06:09:30;;;;;;;15.73;8.13;;;3.00;99.90;;;;;;5181532;28;20045;-73
2022/04/09 06:12:10;;;;;;;17.83;8.98;;;3.10;99.90;;;;;;5181511;28;20060;-73
2022/04/09 06:14:56;;;;;;;22.75;10.13;;;3.10;99.90;;;;;;5182060;28;20046;-74
2022/04/09 06:17:36;;;;;;;20.83;9.02;;;3.00;99.90;;;;;;5181620;28;20037;-74
2022/04/09 06:20:09;;;;;;;20.15;10.25;;;3.00;99.90;;;;;;5160620;28;20204;-73
2022/04/09 06:22:45;;;;;;;19.08;10.20;;;3.10;99.90;;;;;;5177874;28;20064;-73
2022/04/09 06:25:21;;;;;;;14.82;8.50;;;3.10;99.90;;;;;;5169416;28;20076;-73
2022/04/09 06:27:54;;;;;;;19.10;8.67;;;3.20;99.90;;;;;;5171178;28;20065;-74
2022/04/09 06:30:27;;;;;;;22.25;10.32;;;3.20;99.90;;;;;;5180381;28;20053;-72
2022/04/09 06:33:06;;;;;;;21.40;10.38;;;3.20;99.90;;;;;;5154940;28;26170;-73
2022/04/09 06:35:39;;;;;;;15.82;9.23;;;3.30;99.90;;;;;;5155001;28;20052;-73
2022/04/09 06:38:15;;;;;;;20.77;10.80;;;3.30;99.90;;;;;;5172530;28;20052;-73
2022/04/09 06:40:48;;;;;;;18.85;9.75;;;3.40;99.90;;;;;;5170854;28;20480;-73
2022/04/09 06:43:30;;;;;;;17.25;8.95;;;3.30;99.90;;;;;;5184301;28;20049;-73
2022/04/09 06:46:14;;;;;;;17.70;10.32;;;3.40;99.90;;;;;;5180176;28;20057;-73
2022/04/09 06:49:06;;;;;;;17.30;9.60;;;3.40;99.90;;;;;;5186150;28;20049;-73
2022/04/09 06:52:01;;;;;;;17.08;10.02;;;3.50;99.90;;;;;;5151199;28;20416;-73
2022/04/09 06:54:42;;;;;;;14.48;9.13;;;3.50;99.90;;;;;;5156012;28;20603;-73
2022/04/09 06:57:17;;;;;;;19.50;11.18;;;3.50;99.90;;;;;;5177076;28;20056;-73
2022/04/09 06:59:56;;;;;;;19.52;10.48;;;3.50;99.90;;;;;;5160756;28;20121;-73
2022/04/09 07:02:29;;;;;;;18.77;9.77;;;3.50;99.90;;;;;;5151171;28;20136;-73
2022/04/09 07:05:02;;;;;;;17.40;9.20;;;3.60;99.90;;;;;;5174259;28;20544;-73
2022/04/09 07:07:34;;;;;;;16.58;10.15;;;3.60;99.90;;;;;;5171303;28;20053;-74
2022/04/09 07:10:11;;;;;;;18.13;10.00;;;3.70;99.90;;;;;;5173780;28;20406;-74
2022/04/09 07:12:43;;;;;;;16.90;10.80;;;3.70;99.90;;;;;;5166051;28;20054;-73
2022/04/09 07:15:16;;;;;;;14.85;8.90;;;3.80;99.90;;;;;;5176366;28;20334;-74
2022/04/09 07:17:48;;;;;;;16.58;10.10;;;3.80;99.90;;;;;;5172547;28;20436;-73
2022/04/09 07:20:20;;;;;;;16.73;10.45;;;3.90;99.90;;;;;;5164040;28;20061;-73
2022/04/09 07:22:53;;;;;;;17.05;10.60;;;3.90;99.90;;;;;;5168619;28;20533;-73
2022/04/09 07:25:25;;;;;;;16.67;9.25;;;4.00;99.90;;;;;;5166064;28;20431;-72
2022/04/09 07:27:58;;;;;;;17.58;9.57;;;4.00;99.90;;;;;;5164644;28;20062;-73
2022/04/09 07:30:30;;;;;;;16.83;9.20;;;3.90;99.90;;;;;;5165243;28;20038;-71
2022/04/09 07:33:03;;;;;;;20.77;10.45;;;3.90;99.90;;;;;;5179345;28;20497;-74
2022/04/09 07:35:36;;;;;;;16.80;10.03;;;4.00;99.90;;;;;;5175172;28;20049;-73
2022/04/09 07:38:08;;;;;;;18.00;8.93;;;4.00;99.90;;;;;;5176903;28;20052;-73
2022/04/09 07:40:40;;;;;;;16.58;10.32;;;3.80;99.90;;;;;;5172160;28;20060;-73
2022/04/09 07:43:13;;;;;;;17.85;9.85;;;3.80;99.90;;;;;;5169223;28;20058;-73
2022/04/09 07:45:46;;;;;;;15.90;9.65;;;3.80;99.90;;;;;;5160246;28;22775;-73
2022/04/09 07:48:20;;;;;;;17.73;9.63;;;3.80;99.90;;;;;;5164123;28;20434;-73
2022/04/09 07:50:52;;;;;;;19.23;10.52;;;3.80;99.90;;;;;;5161728;28;20046;-72
2022/04/09 07:53:24;;;;;;;16.98;9.57;;;3.90;99.90;;;;;;5165558;28;20709;-72
2022/04/09 07:55:57;;;;;;;15.80;9.48;;;4.00;99.90;;;;;;5162680;28;20041;-72
2022/04/09 07:58:30;;;;;;;16.25;9.27;;;4.00;99.90;;;;;;5159225;28;20637;-73
2022/04/09 08:01:02;;;;;;;18.93;9.73;;;4.00;99.90;;;;;;5167279;28;20068;-72
2022/04/09 08:03:35;;;;;;;18.30;10.02;;;3.90;99.90;;;;;;5176969;28;20777;-72
2022/04/09 08:06:07;;;;;;;22.48;11.65;;;3.90;99.90;;;;;;5167759;28;20060;-73
2022/04/09 08:08:40;;;;;;;21.30;12.00;;;3.90;99.90;;;;;;5159271;28;20045;-73
2022/04/09 08:11:12;;;;;;;17.55;11.55;;;4.00;99.90;;;;;;5157085;28;20836;-73
2022/04/09 08:13:44;;;;;;;23.05;11.65;;;4.20;99.90;;;;;;5170190;28;20037;-74
2022/04/09 08:16:17;;;;;;;25.63;11.98;;;4.30;99.90;;;;;;5165300;28;20100;-73
2022/04/09 08:18:49;;;;;;;20.77;13.07;;;4.30;99.90;;;;;;5161394;28;20053;-74
2022/04/09 08:21:22;;;;;;;18.77;11.48;;;4.40;99.90;;;;;;5173396;28;20049;-73
2022/04/09 08:23:54;;;;;;;27.80;13.90;;;4.60;99.90;;;;;;5164677;28;20046;-73
2022/04/09 08:26:27;;;;;;;22.55;12.77;;;4.70;99.90;;;;;;5169081;28;20329;-74
2022/04/09 08:29:00;;;;;;;25.37;14.00;;;5.00;99.90;;;;;;5165950;28;20054;-73
2022/04/09 08:31:32;;;;;;;22.20;12.63;;;5.10;99.90;;;;;;5147140;28;20303;-73
2022/04/09 08:34:05;;;;;;;21.33;12.05;;;5.10;99.90;;;;;;5172779;28;20049;-74
2022/04/09 08:36:37;;;;;;;21.63;12.77;;;5.10;99.90;;;;;;5175634;28;20045;-73
2022/04/09 08:39:10;;;;;;;20.42;12.23;;;5.10;99.90;;;;;;5169017;28;20052;-72
2022/04/09 08:41:44;;;;;;;18.08;10.82;;;5.00;99.90;;;;;;5167683;28;20698;-71
2022/04/09 08:44:18;;;;;;;21.80;12.95;;;4.90;99.90;;;;;;5176082;28;20060;-71
2022/04/09 08:46:53;;;;;;;23.63;13.02;;;4.80;99.90;;;;;;5170737;28;20050;-72
2022/04/09 08:49:29;;;;;;;19.73;11.52;;;4.90;99.90;;;;;;5178184;28;20617;-73
2022/04/09 08:52:02;;;;;;;21.80;11.80;;;4.80;99.90;;;;;;5177935;28;20037;-72
2022/04/09 08:54:36;;;;;;;22.13;11.75;;;4.90;99.90;;;;;;5175901;28;20044;-72
2022/04/09 08:57:10;;;;;;;19.00;12.23;;;5.00;99.90;;;;;;5175727;28;20561;-72
2022/04/09 08:59:42;;;;;;;21.23;12.05;;;5.00;99.90;;;;;;5177067;28;20049;-72
2022/04/09 09:02:15;;;;;;;22.15;12.15;;;4.90;99.90;;;;;;5176880;28;20598;-73
2022/04/09 09:04:48;;;;;;;18.17;10.57;;;4.90;99.90;;;;;;5169210;28;20413;-71
2022/04/09 09:07:24;;;;;;;20.40;12.20;;;5.00;99.90;;;;;;5177197;28;20072;-73
2022/04/09 09:10:15;;;;;;;21.10;13.30;;;5.20;99.90;;;;;;5178180;28;20046;-72
2022/04/09 09:13:11;;;;;;;19.13;10.85;;;5.50;99.90;;;;;;5158285;28;20590;-71
2022/04/09 09:15:53;;;;;;;17.70;10.07;;;5.70;99.90;;;;;;5177008;28;20041;-72
2022/04/09 09:18:28;;;;;;;15.88;10.10;;;5.70;99.90;;;;;;5175371;28;20045;-73
2022/04/09 09:21:00;;;;;;;;;;;5.80;99.90;;;;;;5180107;28;20685;-73
2022/04/09 09:23:33;;;;;;;16.13;8.48;;;5.80;95.30;;;;;;5169000;28;22544;-73
2022/04/09 09:26:05;;;;;;;15.07;9.07;;;5.90;98.30;;;;;;5171527;28;20049;-74
2022/04/09 09:28:38;;;;;;;10.60;7.65;;;6.00;96.70;;;;;;5167742;28;20065;-74
2022/04/09 09:31:12;;;;;;;11.20;7.22;;;6.00;94.30;;;;;;5174160;28;20045;-73
2022/04/09 09:33:48;;;;;;;14.50;8.02;;;6.00;93.00;;;;;;5171183;28;20068;-73
2022/04/09 09:36:43;;;;;;;12.10;6.78;;;5.90;92.50;;;;;;5162445;28;20049;-74
2022/04/09 09:39:21;;;;;;;10.82;6.45;;;5.90;91.60;;;;;;5171645;28;20444;-74
2022/04/09 09:41:56;;;;;;;8.93;5.63;;;6.00;91.40;;;;;;5169353;28;20034;-73
2022/04/09 09:44:34;;;;;;;10.07;5.50;;;6.20;90.30;;;;;;5158757;28;20775;-73
2022/04/09 09:47:09;;;;;;;12.23;5.50;;;6.40;90.40;;;;;;5178469;28;20045;-73
2022/04/09 09:49:56;;;;;;;6.47;4.53;;;6.70;88.30;;;;;;5179454;28;20054;-73
2022/04/09 09:52:36;;;;;;;10.45;4.55;;;6.80;81.90;;;;;;5175095;28;20053;-73
2022/04/09 09:55:14;;;;;;;7.43;4.57;;;6.80;82.70;;;;;;5175698;28;21449;-74
2022/04/09 09:57:52;;;;;;;7.68;4.32;;;6.80;82.30;;;;;;5169250;28;20060;-73
2022/04/09 10:00:24;;;;;;;11.57;6.10;;;6.90;80.10;;;;;;5179547;28;20054;-74
2022/04/09 10:02:58;;;;;;;7.93;4.53;;;6.90;81.70;;;;;;5180585;28;20046;-71
2022/04/09 10:05:31;;;;;;;7.25;4.78;;;7.00;79.80;;;;;;5168100;28;20061;-71
2022/04/09 10:08:05;;;;;;;9.82;5.18;;;7.10;80.60;;;;;;5173863;28;20052;-73
2022/04/09 10:10:43;;;;;;;6.95;4.65;;;7.10;80.80;;;;;;5177936;28;20041;-74
2022/04/09 10:13:21;;;;;;;8.93;5.15;;;6.80;79.00;;;;;;5180085;28;20478;-73
2022/04/09 10:15:54;;;;;;;10.32;5.20;;;6.80;78.60;;;;;;5187361;28;20037;-72
2022/04/09 10:18:27;;;;;;;7.38;5.25;;;7.00;80.20;;;;;;5163471;28;20421;-72
2022/04/09 10:21:01;;;;;;;11.10;4.57;;;7.20;81.40;;;;;;5163818;28;20041;-72
2022/04/09 10:23:35;;;;;;;9.65;4.82;;;7.20;78.20;;;;;;5169552;28;20057;-72
2022/04/09 10:26:08;;;;;;;10.85;6.03;;;7.00;79.20;;;;;;5157173;28;20690;-71
2022/04/09 10:28:40;;;;;;;13.50;6.85;;;6.80;80.00;;;;;;5175377;28;20049;-72
2022/04/09 10:31:30;;;;;;;12.00;6.10;;;6.50;81.00;;;;;;5174442;28;20045;-73
2022/04/09 10:34:05;;;;;;;8.63;6.00;;;6.40;80.80;;;;;;5174536;28;20049;-72
2022/04/09 10:36:40;;;;;;;11.65;5.32;;;6.30;81.40;;;;;;5180381;28;20033;-72
2022/04/09 10:39:39;;;;;;;8.43;4.72;;;6.50;81.40;;;;;;5167496;28;20069;-72
2022/04/09 10:42:47;;;;;;;10.15;5.50;;;6.70;79.90;;;;;;5154738;28;20058;-73
2022/04/09 10:45:21;;;;;;;9.30;4.90;;;6.90;77.60;;;;;;5172750;28;20045;-74
2022/04/09 10:48:14;;;;;;;6.75;4.03;;;7.20;78.30;;;;;;5171708;28;20053;-72
2022/04/09 10:50:56;;;;;;;7.68;3.78;;;7.50;74.80;;;;;;5165338;28;20038;-73
2022/04/09 10:53:31;;;;;;;7.88;4.07;;;7.60;74.20;;;;;;5173486;28;20045;-72
2022/04/09 10:56:42;;;;;;;7.13;4.43;;;7.50;75.10;;;;;;5161131;28;20582;-71
2022/04/09 10:59:16;;;;;;;11.40;4.90;;;7.50;72.70;;;;;;5152709;28;20049;-73
2022/04/09 11:01:50;;;;;;;11.35;4.75;;;7.60;76.10;;;;;;5159956;28;20053;-73
2022/04/09 11:07:19;;;;;;;7.68;4.53;;;7.90;74.50;;;;;;5171547;28;20049;-72
2022/04/09 11:09:59;;;;;;;11.75;4.63;;;8.00;74.50;;;;;;5169141;28;20049;-73
2022/04/09 11:12:43;;;;;;;8.35;4.75;;;8.00;74.20;;;;;;5176293;28;20038;-72
2022/04/09 11:15:16;;;;;;;9.88;4.60;;;8.20;73.70;;;;;;5166550;28;20052;-73
2022/04/09 11:17:48;;;;;;;9.50;4.30;;;8.60;75.70;;;;;;5166756;28;20045;-72
2022/04/09 11:20:23;;;;;;;5.07;3.88;;;8.80;73.80;;;;;;5155574;28;20057;-72
2022/04/09 11:22:56;;;;;;;6.17;4.07;;;8.70;73.30;;;;;;4470224;28;10001017;-72
2022/04/09 11:25:30;;;;;;;6.03;3.75;;;8.70;73.60;;;;;;5164248;28;20064;-73
2022/04/09 11:28:13;;;;;;;7.35;4.10;;;8.80;71.80;;;;;;5179209;28;20049;-72
2022/04/09 11:30:58;;;;;;;4.57;3.42;;;9.20;70.50;;;;;;5171070;28;20595;-72
2022/04/09 11:33:31;;;;;;;5.70;3.25;;;9.70;69.40;;;;;;5143540;28;20045;-73
2022/04/09 11:36:03;;;;;;;6.38;3.85;;;10.10;69.00;;;;;;5157892;28;20943;-73
2022/04/09 11:38:36;;;;;;;5.03;3.78;;;10.40;66.20;;;;;;5164515;28;20310;-71
2022/04/09 11:41:19;;;;;;;7.53;3.42;;;9.90;65.90;;;;;;5162010;28;20042;-72
2022/04/09 11:43:52;;;;;;;6.60;3.30;;;9.80;65.90;;;;;;5159909;28;20537;-71
2022/04/09 11:46:31;;;;;;;3.85;3.13;;;9.80;66.60;;;;;;5150915;28;20068;-72
2022/04/09 11:49:05;;;;;;;6.78;3.15;;;10.10;66.60;;;;;;5163095;28;20053;-72
2022/04/09 11:51:37;;;;;;;;;;;10.60;66.70;;;;;;5169165;28;20536;-71
2022/04/09 11:54:16;;;;;;;4.95;2.85;;;11.30;61.90;;;;;;5167918;28;20507;-71
2022/04/09 11:56:49;;;;;;;7.25;3.13;;;11.80;62.10;;;;;;5151128;28;20064;-71
2022/04/09 11:59:22;;;;;;;8.13;2.88;;;11.60;61.90;;;;;;5191097;28;20046;-71
2022/04/09 12:01:56;;;;;;;9.15;3.72;;;10.90;60.50;;;;;;5160577;28;20144;-73
2022/04/09 12:04:37;;;;;;;5.43;2.92;;;10.40;63.20;;;;;;5172401;28;20045;-74
2022/04/09 12:07:10;;;;;;;8.20;2.72;;;10.00;62.90;;;;;;5173869;28;20054;-72
2022/04/09 12:09:43;;;;;;;7.00;2.90;;;10.00;64.00;;;;;;5173348;28;20048;-72
2022/04/09 12:12:17;;;;;;;5.45;2.85;;;10.20;63.60;;;;;;5173569;28;20045;-72
2022/04/09 12:14:57;;;;;;;4.00;2.80;;;10.70;62.90;;;;;;5176858;28;20048;-72
2022/04/09 12:17:36;;;;;;;5.90;3.15;;;11.30;62.20;;;;;;5172400;28;20049;-72
2022/04/09 12:20:32;;;;;;;3.60;2.80;;;11.90;60.00;;;;;;5170187;28;20045;-72
2022/04/09 12:23:05;;;;;;;4.72;2.88;;;12.30;57.70;;;;;;5171052;28;20518;-72
2022/04/09 12:25:42;;;;;;;6.20;2.70;;;12.40;58.20;;;;;;5165561;28;20050;-75
2022/04/09 12:28:23;;;;;;;7.07;2.72;;;12.00;56.70;;;;;;5170184;28;20053;-71
2022/04/09 12:30:56;;;;;;;8.02;3.20;;;11.50;56.40;;;;;;5184232;28;20420;-74
2022/04/09 12:33:29;;;;;;;5.35;2.75;;;10.90;57.80;;;;;;5177055;28;20049;-73
2022/04/09 12:36:08;;;;;;;5.70;2.78;;;10.40;58.10;;;;;;5178020;28;21072;-74
2022/04/09 12:38:41;;;;;;;8.30;3.00;;;9.80;58.30;;;;;;5175908;28;20050;-73
2022/04/09 12:41:14;;;;;;;3.97;2.30;;;10.00;59.80;;;;;;5178511;28;20763;-75
2022/04/09 12:43:47;;;;;;;6.07;2.67;;;10.70;59.30;;;;;;5155413;28;20622;-74
2022/04/09 12:46:20;;;;;;;4.47;2.28;;;10.90;57.90;;;;;;5152618;28;20508;-71
2022/04/09 12:48:53;;;;;;;6.10;2.25;;;11.40;55.80;;;;;;5164554;28;20750;-72
2022/04/09 12:51:27;;;;;;;3.78;2.38;;;11.70;55.00;;;;;;5162106;28;20046;-72
2022/04/09 12:53:59;;;;;;;5.93;2.85;;;12.30;55.70;;;;;;5159483;28;20053;-73
2022/04/09 12:56:35;;;;;;;3.97;1.95;;;12.40;54.40;;;;;;5161529;28;20588;-74
2022/04/09 12:59:08;;;;;;;6.75;2.35;;;12.60;53.20;;;;;;5158236;28;20053;-73
2022/04/09 13:01:41;;;;;;;6.20;2.45;;;12.90;53.50;;;;;;5158481;28;20056;-75
2022/04/09 13:04:14;;;;;;;6.65;2.38;;;13.50;52.90;;;;;;5160534;28;20050;-72
2022/04/09 13:06:46;;;;;;;5.68;2.28;;;13.10;50.70;;;;;;5173113;28;20374;-74
2022/04/09 13:09:19;;;;;;;5.28;1.92;;;12.60;50.90;;;;;;5167333;28;20054;-73
2022/04/09 13:11:53;;;;;;;3.45;2.15;;;12.50;51.30;;;;;;5147959;28;20050;-72
2022/04/09 13:14:25;;;;;;;3.15;1.80;;;12.80;50.90;;;;;;5155736;28;20064;-74
2022/04/09 13:17:03;;;;;;;6.55;1.75;;;12.70;51.20;;;;;;5160903;28;20042;-73
2022/04/09 13:19:36;;;;;;;4.20;1.93;;;13.10;50.50;;;;;;5149950;28;20056;-73
2022/04/09 13:22:12;;;;;;;3.45;1.90;;;13.20;51.60;;;;;;5155750;28;20756;-72
2022/04/09 13:24:45;;;;;;;5.20;2.30;;;13.70;50.90;;;;;;5167692;28;20053;-74
2022/04/09 13:27:17;;;;;;;2.53;1.92;;;14.10;51.10;;;;;;5160677;28;20058;-72
2022/04/09 13:29:50;;;;;;;3.85;2.33;;;14.30;50.50;;;;;;5172354;28;20060;-72
2022/04/09 13:32:23;;;;;;;5.00;1.75;;;14.20;50.40;;;;;;5177007;28;20535;-72
2022/04/09 13:34:56;;;;;;;3.83;2.17;;;13.90;50.90;;;;;;5193365;28;20049;-72